createdAt,value
2023-10-20T00:46:11.349Z,4.40
2023-10-20T00:48:39.894Z,5.00
2023-10-20T00:51:08.767Z,4.68
2023-10-20T00:53:38.123Z,4.75
2023-10-20T00:56:07.541Z,4.93
2023-10-20T00:58:35.924Z,4.50
2023-10-20T01:01:06.142Z,4.55
2023-10-20T01:03:37.136Z,5.30
2023-10-20T01:06:06.364Z,5.10
2023-10-20T01:08:35.514Z,4.90
2023-10-20T01:11:16.400Z,4.53
2023-10-20T01:13:44.146Z,4.63
2023-10-20T01:16:12.099Z,5.35
2023-10-20T01:18:41.576Z,4.80
2023-10-20T01:21:09.410Z,4.68
2023-10-20T01:23:39.088Z,5.40
2023-10-20T01:26:08.968Z,4.78
2023-10-20T01:28:38.192Z,5.25
2023-10-20T01:31:06.073Z,5.70
2023-10-20T01:33:33.977Z,6.00
2023-10-20T01:36:02.104Z,5.63
2023-10-20T01:38:30.141Z,5.63
2023-10-20T01:40:57.988Z,6.22
2023-10-20T01:43:27.238Z,5.50
2023-10-20T01:45:55.103Z,5.90
2023-10-20T01:48:22.977Z,5.75
2023-10-20T01:50:51.051Z,5.65
2023-10-20T01:53:19.048Z,5.95
2023-10-20T01:55:50.907Z,5.90
2023-10-20T01:58:19.712Z,6.50
2023-10-20T02:00:52.144Z,6.20
2023-10-20T02:03:21.222Z,6.00
2023-10-20T02:05:49.500Z,5.72
2023-10-20T02:08:18.022Z,6.35
2023-10-20T02:10:46.654Z,6.28
2023-10-20T02:13:14.690Z,6.10
2023-10-20T02:15:48.036Z,6.15
2023-10-20T02:18:18.642Z,6.50
2023-10-20T02:20:46.813Z,6.95
2023-10-20T02:23:14.518Z,6.78
2023-10-20T02:25:42.186Z,6.35
2023-10-20T02:28:09.817Z,6.20
2023-10-20T02:30:37.508Z,6.18
2023-10-20T02:33:05.677Z,6.75
2023-10-20T02:35:34.764Z,6.97
2023-10-20T02:38:02.547Z,6.95
2023-10-20T02:40:30.223Z,6.50
2023-10-20T02:42:57.912Z,6.72
2023-10-20T02:45:25.625Z,7.20
2023-10-20T02:47:53.631Z,6.68
2023-10-20T02:50:21.614Z,7.50
2023-10-20T02:52:50.820Z,7.25
2023-10-20T02:55:18.855Z,6.65
2023-10-20T02:57:46.498Z,7.15
2023-10-20T03:00:19.215Z,6.95
2023-10-20T03:02:49.719Z,6.57
2023-10-20T03:05:17.977Z,7.22
2023-10-20T03:07:46.940Z,7.63
2023-10-20T03:10:17.345Z,7.35
2023-10-20T03:12:45.011Z,7.55
2023-10-20T03:15:12.956Z,8.50
2023-10-20T03:17:40.682Z,7.07
2023-10-20T03:20:10.546Z,7.68
2023-10-20T03:22:38.602Z,7.53
2023-10-20T03:25:08.938Z,7.65
2023-10-20T03:27:39.055Z,7.40
2023-10-20T03:30:08.157Z,7.68
2023-10-20T03:32:36.375Z,7.45
2023-10-20T03:35:04.558Z,7.72
2023-10-20T03:37:32.671Z,7.32
2023-10-20T03:40:00.327Z,7.95
2023-10-20T03:42:28.004Z,7.20
2023-10-20T03:44:57.602Z,7.57
2023-10-20T03:47:29.036Z,7.45
2023-10-20T03:49:59.078Z,7.78
2023-10-20T03:52:29.443Z,7.32
2023-10-20T03:54:57.267Z,8.73
2023-10-20T03:57:25.020Z,7.72
2023-10-20T03:59:52.773Z,7.10
2023-10-20T04:02:21.806Z,7.45
2023-10-20T04:04:49.455Z,9.40
2023-10-20T04:07:17.171Z,7.97
2023-10-20T04:09:45.123Z,8.30
2023-10-20T04:12:12.798Z,8.15
2023-10-20T04:14:40.500Z,8.57
2023-10-20T04:17:08.296Z,8.40
2023-10-20T04:19:37.375Z,7.97
2023-10-20T04:22:13.724Z,8.35
2023-10-20T04:24:42.397Z,8.57
2023-10-20T04:27:21.714Z,8.73
2023-10-20T04:30:09.867Z,8.13
2023-10-20T04:32:55.137Z,8.07
2023-10-20T04:35:40.881Z,8.57
2023-10-20T04:38:26.301Z,7.45
2023-10-20T04:43:42.996Z,8.27
2023-10-20T04:46:28.194Z,8.27
2023-10-20T04:49:28.083Z,8.18
2023-10-20T04:52:16.787Z,8.05
2023-10-20T04:54:52.017Z,7.40
2023-10-20T04:57:36.576Z,8.00
2023-10-20T05:00:18.425Z,7.57
2023-10-20T05:02:58.204Z,8.27
2023-10-20T05:05:34.600Z,8.57
2023-10-20T05:08:06.705Z,8.13
2023-10-20T05:10:34.802Z,7.78
2023-10-20T05:13:02.388Z,8.55
2023-10-20T05:15:32.780Z,8.68
2023-10-20T05:18:00.943Z,9.00
2023-10-20T05:20:28.791Z,9.18
2023-10-20T05:22:57.572Z,8.85
2023-10-20T05:25:26.689Z,8.68
2023-10-20T05:27:54.531Z,9.07
2023-10-20T05:30:22.162Z,9.45
2023-10-20T05:32:51.113Z,9.02
2023-10-20T05:35:18.897Z,9.20
2023-10-20T05:37:46.558Z,10.73
2023-10-20T05:40:14.601Z,10.00
2023-10-20T05:42:43.593Z,10.15
2023-10-20T05:45:18.280Z,9.98
2023-10-20T05:47:46.576Z,9.77
2023-10-20T05:50:14.670Z,9.93
2023-10-20T05:52:42.445Z,9.70
2023-10-20T05:55:12.131Z,9.50
2023-10-20T06:01:48.091Z,9.45
2023-10-20T06:04:45.576Z,9.20
2023-10-20T06:07:20.737Z,8.68
2023-10-20T06:10:25.319Z,8.05
2023-10-20T06:13:05.124Z,8.38
2023-10-20T08:01:47.947Z,6.18
2023-10-20T08:04:15.710Z,6.03
2023-10-20T08:06:43.485Z,6.25
2023-10-20T08:09:13.026Z,5.47
2023-10-20T08:11:43.071Z,5.00
2023-10-20T08:14:10.983Z,4.97
2023-10-20T08:16:39.442Z,5.07
2023-10-20T08:19:08.627Z,4.72
2023-10-20T08:21:36.612Z,4.85
2023-10-20T08:24:06.076Z,4.38
2023-10-20T08:26:34.025Z,4.80
2023-10-20T08:29:02.268Z,5.03
2023-10-20T08:31:29.996Z,4.50
2023-10-20T08:33:58.476Z,4.28
2023-10-20T08:36:27.664Z,3.85
2023-10-20T08:38:55.416Z,3.92
2023-10-20T08:41:24.950Z,4.75
2023-10-20T08:43:53.390Z,4.07
2023-10-20T08:46:23.970Z,3.90
2023-10-20T08:48:52.059Z,3.83
2023-10-20T08:51:20.293Z,4.05
2023-10-20T08:53:50.021Z,4.53
2023-10-20T08:56:18.064Z,4.07
2023-10-20T08:58:47.527Z,4.13
2023-10-20T09:01:16.201Z,3.80
2023-10-20T09:03:46.178Z,3.80
2023-10-20T09:06:15.842Z,4.30
2023-10-20T09:08:45.193Z,4.32
2023-10-20T09:11:14.648Z,4.25
2023-10-20T09:13:44.485Z,4.00
2023-10-20T09:16:14.525Z,4.30
2023-10-20T09:18:47.712Z,4.65
2023-10-20T09:21:16.412Z,4.38
2023-10-20T09:23:55.353Z,4.53
2023-10-20T09:26:25.171Z,4.50
2023-10-20T09:28:54.915Z,4.90
2023-10-20T09:31:23.846Z,4.80
2023-10-20T09:33:52.250Z,4.45
2023-10-20T09:36:20.371Z,5.00
2023-10-20T09:38:52.511Z,4.45
2023-10-20T09:41:24.309Z,4.72
2023-10-20T09:43:54.575Z,4.40
2023-10-20T09:46:46.840Z,4.93
2023-10-20T09:49:17.430Z,4.53
2023-10-20T09:51:46.657Z,5.00
2023-10-20T09:54:15.611Z,4.53
2023-10-20T09:56:46.572Z,4.80
2023-10-20T09:59:19.563Z,4.68
2023-10-20T10:01:47.503Z,4.53
2023-10-20T10:04:15.478Z,4.40
2023-10-20T10:06:46.804Z,4.55
2023-10-20T10:09:16.306Z,4.63
2023-10-20T10:11:46.687Z,4.82
2023-10-20T10:14:21.626Z,4.18
2023-10-20T10:16:54.644Z,4.32
2023-10-20T10:19:26.406Z,4.07
2023-10-20T10:21:58.082Z,3.97
2023-10-20T10:24:26.529Z,4.18
2023-10-20T10:26:58.096Z,4.57
2023-10-20T10:29:48.289Z,4.57
2023-10-20T10:32:20.274Z,4.45
2023-10-20T10:34:50.017Z,4.47
2023-10-20T10:37:30.431Z,4.18
2023-10-20T10:40:10.077Z,4.15
2023-10-20T10:42:40.965Z,3.80
2023-10-20T10:45:24.414Z,3.75
2023-10-20T10:47:53.683Z,4.00
2023-10-20T10:50:23.378Z,3.92
2023-10-20T10:52:52.711Z,4.20
2023-10-20T10:55:21.338Z,3.78
2023-10-20T10:57:52.238Z,4.38
2023-10-20T11:00:20.626Z,3.70
2023-10-20T11:02:48.920Z,4.00
2023-10-20T11:05:17.532Z,4.07
2023-10-20T11:08:02.706Z,4.90
2023-10-20T11:10:31.986Z,5.15
2023-10-20T11:13:01.710Z,4.28
2023-10-20T11:15:30.677Z,3.78
2023-10-20T11:17:59.946Z,4.07
2023-10-20T11:20:30.797Z,3.42
2023-10-20T11:22:59.780Z,3.47
2023-10-20T11:25:27.756Z,4.03
2023-10-20T11:27:56.273Z,3.83
2023-10-20T11:30:27.528Z,3.90
2023-10-20T11:32:56.164Z,3.92
2023-10-20T11:35:25.785Z,3.92
2023-10-20T11:37:54.255Z,3.85
2023-10-20T11:40:22.310Z,3.85
2023-10-20T11:42:50.279Z,3.70
2023-10-20T11:45:18.914Z,3.33
2023-10-20T11:47:48.068Z,3.17
2023-10-20T11:50:16.774Z,3.55
2023-10-20T11:52:45.041Z,3.70
2023-10-20T11:55:13.610Z,3.50
2023-10-20T11:57:41.558Z,3.28
2023-10-20T12:00:11.068Z,3.22
2023-10-20T12:02:39.556Z,3.33
2023-10-20T12:05:09.725Z,3.28
2023-10-20T12:07:38.496Z,4.53
2023-10-20T12:10:07.570Z,3.58
2023-10-20T12:12:35.641Z,3.35
2023-10-20T12:15:04.326Z,3.55
2023-10-20T12:17:32.349Z,3.15
2023-10-20T12:20:00.039Z,3.28
2023-10-20T12:22:29.129Z,3.15
2023-10-20T12:24:57.046Z,2.92
2023-10-20T12:27:25.300Z,3.20
2023-10-20T12:29:53.080Z,3.17
2023-10-20T12:32:20.738Z,3.17
2023-10-20T12:34:48.365Z,3.38
2023-10-20T12:37:15.954Z,3.20
2023-10-20T12:39:44.828Z,2.83
2023-10-20T12:42:13.695Z,3.15
2023-10-20T12:44:41.296Z,3.13
2023-10-20T12:47:08.916Z,3.70
2023-10-20T12:49:36.557Z,3.10
2023-10-20T12:52:05.308Z,3.30
2023-10-20T12:54:33.286Z,3.50
2023-10-20T12:57:02.559Z,3.42
2023-10-20T12:59:30.766Z,3.30
2023-10-20T13:01:58.617Z,3.72
2023-10-20T13:04:26.604Z,3.30
2023-10-20T13:07:00.741Z,3.40
2023-10-20T13:09:29.054Z,3.55
2023-10-20T13:11:58.718Z,3.17
2023-10-20T13:14:28.276Z,3.30
2023-10-20T13:16:56.242Z,3.47
2023-10-20T13:19:24.184Z,3.33
2023-10-20T13:21:51.907Z,3.17
2023-10-20T13:24:19.686Z,3.33
2023-10-20T13:26:47.485Z,3.40
2023-10-20T13:29:15.214Z,3.65
2023-10-20T13:31:44.480Z,3.33
2023-10-20T13:34:12.293Z,4.20
2023-10-20T13:36:40.017Z,3.60
2023-10-20T13:39:18.150Z,3.80
2023-10-20T13:41:48.650Z,3.40
2023-10-20T13:44:17.795Z,3.67
2023-10-20T13:46:47.007Z,3.75
2023-10-20T13:49:14.742Z,3.70
2023-10-20T13:51:42.488Z,4.00
2023-10-20T13:54:10.364Z,3.67
2023-10-20T13:56:38.152Z,3.60
2023-10-20T13:59:06.925Z,4.05
2023-10-20T14:01:34.902Z,4.43
2023-10-20T14:04:06.216Z,3.90
2023-10-20T14:06:34.254Z,3.92
2023-10-20T14:09:02.413Z,4.10
2023-10-20T14:11:30.450Z,4.60
2023-10-20T14:13:58.207Z,4.80
2023-10-20T14:16:26.166Z,4.30
2023-10-20T14:18:53.922Z,4.70
2023-10-20T14:21:24.450Z,4.70
2023-10-20T14:23:52.287Z,9.50
2023-10-20T14:26:20.237Z,5.80
2023-10-20T14:28:47.931Z,6.80
2023-10-20T14:31:15.802Z,7.38
2023-10-20T14:33:43.564Z,6.50
2023-10-20T14:36:14.732Z,7.57
2023-10-20T14:38:43.913Z,7.47
2023-10-20T14:41:11.834Z,7.35
2023-10-20T14:43:40.719Z,7.82
2023-10-20T14:46:10.133Z,6.95
2023-10-20T14:48:38.467Z,7.05
2023-10-20T14:51:11.784Z,5.07
2023-10-20T14:53:39.770Z,5.95
2023-10-20T14:56:16.236Z,4.93
2023-10-20T14:58:44.072Z,4.90
2023-10-20T15:01:13.165Z,5.55
2023-10-20T15:03:41.152Z,4.60
2023-10-20T15:06:09.041Z,6.22
2023-10-20T15:08:37.098Z,5.28
2023-10-20T15:11:10.010Z,5.70
2023-10-20T15:13:37.701Z,3.53
2023-10-20T15:16:07.018Z,4.30
2023-10-20T15:18:35.185Z,3.30
2023-10-20T15:21:05.751Z,2.78
2023-10-20T15:23:33.782Z,3.20
2023-10-20T15:26:04.752Z,2.78
2023-10-20T15:28:34.014Z,2.60
2023-10-20T15:31:08.523Z,2.60
2023-10-20T15:33:37.339Z,2.53
2023-10-20T15:36:06.776Z,2.22
2023-10-20T15:38:34.942Z,2.92
2023-10-20T15:41:02.840Z,2.45
2023-10-20T15:43:30.639Z,2.42
2023-10-20T15:46:00.866Z,2.63
2023-10-20T15:48:29.059Z,1.70
2023-10-20T15:50:57.010Z,2.05
2023-10-20T15:53:25.486Z,1.60
2023-10-20T15:55:55.825Z,1.85
2023-10-20T15:58:23.561Z,2.58
2023-10-20T16:00:51.395Z,2.30
2023-10-20T16:03:21.018Z,1.38
2023-10-20T16:05:48.962Z,1.83
2023-10-20T16:08:16.703Z,2.20
2023-10-20T16:10:44.636Z,1.88
2023-10-20T16:13:12.346Z,1.75
2023-10-20T16:15:40.159Z,1.83
2023-10-20T16:18:08.286Z,1.60
2023-10-20T16:20:38.209Z,1.67
2023-10-20T16:23:06.157Z,2.33
2023-10-20T16:25:36.550Z,1.83
2023-10-20T16:28:04.939Z,2.00
2023-10-20T16:30:33.112Z,2.03
2023-10-20T16:33:01.605Z,1.60
2023-10-20T16:35:33.884Z,2.10
2023-10-20T16:38:03.682Z,2.22
2023-10-20T16:40:32.589Z,1.90
2023-10-20T16:43:00.567Z,2.22
2023-10-20T16:45:28.512Z,2.25
2023-10-20T16:47:56.405Z,2.22
2023-10-20T16:50:24.509Z,2.10
2023-10-20T16:52:52.933Z,2.30
2023-10-20T16:55:22.318Z,2.20
2023-10-20T16:57:50.242Z,2.50
2023-10-20T17:00:18.729Z,2.15
2023-10-20T17:02:48.377Z,2.80
2023-10-20T17:05:16.315Z,2.20
2023-10-20T17:07:44.046Z,1.95
2023-10-20T17:10:13.691Z,3.10
2023-10-20T17:12:43.038Z,3.40
2023-10-20T17:15:10.836Z,4.60
2023-10-20T17:17:38.677Z,3.30
2023-10-20T17:20:07.341Z,3.78
2023-10-20T17:22:35.304Z,3.70
2023-10-20T17:25:03.561Z,3.20
2023-10-20T17:27:31.397Z,3.13
2023-10-20T17:30:00.728Z,3.55
2023-10-20T17:32:28.614Z,4.05
2023-10-20T17:34:56.430Z,4.10
2023-10-20T17:37:24.043Z,5.45
2023-10-20T17:39:53.293Z,4.53
2023-10-20T17:42:21.380Z,3.70
2023-10-20T17:44:49.040Z,3.90
2023-10-20T17:47:18.026Z,5.13
2023-10-20T17:49:45.600Z,2.80
2023-10-20T17:52:13.189Z,3.05
2023-10-20T17:54:40.824Z,3.50
2023-10-20T17:57:08.485Z,3.60
2023-10-20T17:59:36.316Z,3.03
2023-10-20T18:02:04.099Z,2.22
2023-10-20T18:04:33.199Z,2.42
2023-10-20T18:07:00.830Z,2.47
2023-10-20T18:09:28.441Z,2.35
2023-10-20T18:11:56.411Z,2.55
2023-10-20T18:14:23.959Z,3.20
2023-10-20T18:16:51.987Z,2.60
2023-10-20T18:19:19.679Z,2.60
2023-10-20T18:21:48.610Z,2.63
2023-10-20T18:24:16.166Z,2.58
2023-10-20T18:26:43.786Z,2.20
2023-10-20T18:29:11.550Z,1.92
2023-10-20T18:31:39.202Z,1.88
2023-10-20T18:34:07.277Z,2.10
2023-10-20T18:36:34.876Z,2.40
2023-10-20T18:39:04.460Z,2.20
2023-10-20T18:41:32.767Z,2.10
2023-10-20T18:44:01.491Z,2.10
2023-10-20T18:46:29.076Z,2.00
2023-10-20T18:48:56.640Z,2.00
2023-10-20T18:51:24.255Z,2.15
2023-10-20T18:53:53.171Z,1.83
2023-10-20T18:56:22.846Z,1.90
2023-10-20T18:58:50.485Z,2.03
2023-10-20T19:01:18.089Z,2.20
2023-10-20T19:03:45.875Z,1.63
2023-10-20T19:06:14.134Z,2.00
2023-10-20T19:08:42.123Z,2.00
2023-10-20T19:11:11.518Z,1.80
2023-10-20T19:13:40.816Z,2.60
2023-10-20T19:16:08.461Z,2.00
2023-10-20T19:18:36.567Z,2.15
2023-10-20T19:21:06.044Z,2.00
2023-10-20T19:23:34.081Z,2.20
2023-10-20T19:26:02.280Z,1.98
2023-10-20T19:28:30.698Z,1.98
2023-10-20T19:31:01.276Z,1.98
2023-10-20T19:33:29.439Z,1.85
2023-10-20T19:35:57.586Z,2.13
2023-10-20T19:38:25.649Z,2.10
2023-10-20T19:40:53.913Z,1.92
2023-10-20T19:43:21.760Z,2.05
2023-10-20T19:45:49.428Z,2.17
2023-10-20T19:48:18.511Z,1.90
2023-10-20T19:50:46.487Z,1.88
2023-10-20T19:53:14.185Z,2.20
2023-10-20T19:55:43.901Z,2.10
2023-10-20T19:58:12.083Z,2.20
2023-10-20T20:00:40.661Z,2.28
2023-10-20T20:03:08.860Z,2.10
2023-10-20T20:05:38.341Z,1.98
2023-10-20T20:08:06.157Z,2.22
2023-10-20T20:10:33.965Z,2.30
2023-10-20T20:13:01.655Z,2.13
2023-10-20T20:15:29.406Z,2.53
2023-10-20T20:17:57.742Z,2.30
2023-10-20T20:20:25.559Z,2.03
2023-10-20T20:22:54.813Z,2.20
2023-10-20T20:25:22.462Z,2.60
2023-10-20T20:27:50.329Z,2.10
2023-10-20T20:30:18.210Z,2.67
2023-10-20T20:32:46.120Z,2.40
2023-10-20T20:35:13.857Z,2.65
2023-10-20T20:37:41.697Z,2.65
2023-10-20T20:40:11.845Z,2.00
2023-10-20T20:42:40.974Z,2.33
2023-10-20T20:45:10.467Z,2.28
2023-10-20T20:47:38.274Z,2.03
2023-10-20T20:50:10.671Z,2.15
2023-10-20T20:52:41.065Z,2.53
2023-10-20T20:55:11.900Z,2.08
2023-10-20T20:57:39.620Z,2.00
2023-10-20T21:00:08.606Z,2.10
2023-10-20T21:02:36.477Z,2.20
2023-10-20T21:05:04.620Z,1.90
2023-10-20T21:07:32.330Z,1.88
2023-10-20T21:10:00.062Z,1.88
2023-10-20T21:12:30.580Z,2.13
2023-10-20T21:14:58.696Z,1.88
2023-10-20T21:17:26.600Z,2.17
2023-10-20T21:19:54.308Z,2.20
2023-10-20T21:22:22.145Z,1.90
2023-10-20T21:24:49.799Z,1.90
2023-10-20T21:27:17.485Z,2.00
2023-10-20T21:29:46.550Z,2.10
2023-10-20T21:32:14.410Z,1.92
2023-10-20T21:34:42.165Z,1.85
2023-10-20T21:37:09.998Z,1.90
2023-10-20T21:39:37.761Z,2.00
2023-10-20T21:42:06.426Z,1.83
2023-10-20T21:44:34.904Z,2.22
2023-10-20T21:47:04.277Z,1.75
2023-10-20T21:49:32.013Z,1.88
2023-10-20T21:52:01.801Z,1.70
2023-10-20T21:54:29.525Z,1.95
2023-10-20T21:56:57.408Z,1.67
2023-10-20T21:59:25.289Z,2.10
2023-10-20T22:02:08.384Z,1.80
2023-10-20T22:04:39.095Z,1.70
2023-10-20T22:07:06.928Z,2.00
2023-10-20T22:09:50.037Z,1.70
2023-10-20T22:12:20.428Z,2.08
2023-10-20T22:14:48.156Z,1.83
2023-10-20T22:17:16.063Z,1.80
2023-10-20T22:19:45.348Z,1.77
2023-10-20T22:22:13.264Z,1.92
2023-10-20T22:24:41.419Z,1.85
2023-10-20T22:27:09.401Z,1.83
2023-10-20T22:29:37.810Z,1.92
2023-10-20T22:32:06.934Z,2.08
2023-10-20T22:34:35.050Z,2.10
2023-10-20T22:37:04.695Z,1.77
2023-10-20T22:39:32.436Z,2.00
2023-10-20T22:42:01.168Z,1.70
2023-10-20T22:44:29.724Z,2.00
2023-10-20T22:46:57.589Z,2.10
2023-10-20T22:49:25.823Z,1.80
2023-10-20T22:51:53.630Z,2.10
2023-10-20T22:54:22.977Z,1.90
2023-10-20T22:56:50.882Z,2.00
2023-10-20T22:59:18.707Z,1.80
2023-10-20T23:01:46.613Z,1.90
2023-10-20T23:04:17.169Z,2.00
2023-10-20T23:06:46.599Z,1.90
2023-10-20T23:09:15.039Z,1.98
2023-10-20T23:11:44.985Z,1.80
2023-10-20T23:14:13.769Z,2.00
2023-10-20T23:16:42.003Z,1.85
2023-10-20T23:19:10.103Z,1.67
2023-10-20T23:21:38.031Z,1.67
2023-10-20T23:24:11.680Z,1.80
2023-10-20T23:26:43.528Z,1.77
2023-10-20T23:29:16.666Z,2.00
2023-10-20T23:32:23.845Z,1.92
2023-10-20T23:34:54.914Z,1.88
2023-10-20T23:37:32.000Z,1.73
2023-10-20T23:40:03.248Z,1.60
2023-10-20T23:42:34.926Z,1.63
2023-10-20T23:45:42.608Z,1.80
2023-10-20T23:48:17.044Z,1.90
2023-10-20T23:50:49.424Z,1.70
2023-10-20T23:56:17.637Z,1.83
